createdAt,value
2019-06-26T00:02:33.308Z,98302.00
2019-06-26T00:05:08.620Z,98306.00
2019-06-26T00:07:39.352Z,98309.00
2019-06-26T00:10:09.983Z,98308.00
2019-06-26T00:12:40.447Z,98311.00
2019-06-26T00:15:11.256Z,98308.00
2019-06-26T00:17:41.650Z,98309.00
2019-06-26T00:20:14.461Z,98305.00
2019-06-26T00:22:44.865Z,98314.00
2019-06-26T00:25:15.383Z,98310.00
2019-06-26T00:27:45.777Z,98309.00
2019-06-26T00:30:16.304Z,98303.00
2019-06-26T00:32:46.699Z,98316.00
2019-06-26T00:35:17.314Z,98307.00
2019-06-26T00:37:48.069Z,98302.00
2019-06-26T00:40:18.799Z,98307.00
2019-06-26T00:42:49.192Z,98304.00
2019-06-26T00:45:20.006Z,98301.00
2019-06-26T00:47:50.396Z,98304.00
2019-06-26T00:50:20.941Z,98303.00
2019-06-26T00:52:51.337Z,98308.00
2019-06-26T00:55:21.728Z,98307.00
2019-06-26T00:57:52.401Z,98311.00
2019-06-26T01:00:30.174Z,98306.00
2019-06-26T01:03:00.575Z,98308.00
2019-06-26T01:05:32.129Z,98298.00
2019-06-26T01:08:02.527Z,98303.00
2019-06-26T01:10:32.981Z,98308.00
2019-06-26T01:13:03.401Z,98305.00
2019-06-26T01:15:33.847Z,98309.00
2019-06-26T01:18:04.239Z,98296.00
2019-06-26T01:20:34.638Z,98302.00
2019-06-26T01:23:05.028Z,98309.00
2019-06-26T01:25:35.432Z,98306.00
2019-06-26T01:28:05.825Z,98310.00
2019-06-26T01:30:36.570Z,98301.00
2019-06-26T01:33:06.967Z,98305.00
2019-06-26T01:35:38.276Z,98307.00
2019-06-26T01:38:08.675Z,98301.00
2019-06-26T01:40:39.077Z,98299.00
2019-06-26T01:43:09.744Z,98307.00
2019-06-26T01:45:40.129Z,98300.00
2019-06-26T01:48:10.520Z,98304.00
2019-06-26T01:50:40.916Z,98303.00
2019-06-26T01:53:11.316Z,98305.00
2019-06-26T01:55:41.748Z,98310.00
2019-06-26T01:58:13.023Z,98300.00
2019-06-26T02:00:43.431Z,98306.00
2019-06-26T02:03:13.828Z,98300.00
2019-06-26T02:05:44.494Z,98298.00
2019-06-26T02:08:14.894Z,98302.00
2019-06-26T02:10:45.606Z,98304.00
2019-06-26T02:13:16.020Z,98312.00
2019-06-26T02:15:46.401Z,98309.00
2019-06-26T02:18:33.400Z,98311.00
2019-06-26T02:21:03.921Z,98311.00
2019-06-26T02:23:34.316Z,98309.00
2019-06-26T02:26:04.779Z,98308.00
2019-06-26T02:28:35.185Z,98312.00
2019-06-26T02:31:05.649Z,98309.00
2019-06-26T02:33:36.056Z,98305.00
2019-06-26T02:36:07.292Z,98308.00
2019-06-26T02:38:37.763Z,98312.00
2019-06-26T02:41:08.293Z,98318.00
2019-06-26T02:43:38.687Z,98314.00
2019-06-26T02:46:09.111Z,98324.00
2019-06-26T02:48:39.525Z,98312.00
2019-06-26T02:51:09.889Z,98318.00
2019-06-26T02:53:40.307Z,98318.00
2019-06-26T02:56:10.692Z,98321.00
2019-06-26T02:58:41.093Z,98321.00
2019-06-26T03:01:11.802Z,98322.00
2019-06-26T03:03:42.212Z,98324.00
2019-06-26T03:06:12.861Z,98324.00
2019-06-26T03:08:43.261Z,98313.00
2019-06-26T03:11:13.656Z,98319.00
2019-06-26T03:13:44.053Z,98324.00
2019-06-26T03:16:14.458Z,98331.00
2019-06-26T03:18:44.842Z,98330.00
2019-06-26T03:21:15.266Z,98327.00
2019-06-26T03:23:45.665Z,98329.00
2019-06-26T03:26:16.249Z,98329.00
2019-06-26T03:28:46.645Z,98322.00
2019-06-26T03:31:17.041Z,98327.00
2019-06-26T03:33:47.774Z,98331.00
2019-06-26T03:36:18.512Z,98321.00
2019-06-26T03:38:48.867Z,98328.00
2019-06-26T03:41:19.264Z,98333.00
2019-06-26T03:43:49.665Z,98331.00
2019-06-26T03:46:20.070Z,98322.00
2019-06-26T03:48:50.473Z,98331.00
2019-06-26T03:51:20.902Z,98335.00
2019-06-26T03:53:51.273Z,98335.00
2019-06-26T03:56:21.773Z,98332.00
2019-06-26T03:58:52.455Z,98329.00
2019-06-26T04:01:23.198Z,98334.00
2019-06-26T04:03:57.280Z,98335.00
2019-06-26T04:06:26.345Z,98338.00
2019-06-26T04:08:56.753Z,98335.00
2019-06-26T04:11:27.314Z,98331.00
2019-06-26T04:13:57.734Z,98337.00
2019-06-26T04:16:28.135Z,98341.00
2019-06-26T04:18:58.530Z,98335.00
2019-06-26T04:21:28.938Z,98337.00
2019-06-26T04:23:59.337Z,98335.00
2019-06-26T04:26:29.784Z,98344.00
2019-06-26T04:29:00.520Z,98343.00
2019-06-26T04:31:30.917Z,98345.00
2019-06-26T04:34:01.399Z,98339.00
2019-06-26T04:36:32.273Z,98341.00
2019-06-26T04:39:02.677Z,98335.00
2019-06-26T04:41:33.778Z,98338.00
2019-06-26T04:44:04.267Z,98337.00
2019-06-26T04:46:35.620Z,98342.00
2019-06-26T04:49:06.021Z,98346.00
2019-06-26T04:51:36.429Z,98349.00
2019-06-26T04:54:06.826Z,98353.00
2019-06-26T04:56:37.226Z,98349.00
2019-06-26T04:59:07.635Z,98348.00
2019-06-26T05:01:38.281Z,98348.00
2019-06-26T05:04:08.686Z,98351.00
2019-06-26T05:06:39.444Z,98353.00
2019-06-26T05:09:09.851Z,98347.00
2019-06-26T05:11:40.246Z,98352.00
2019-06-26T05:14:10.657Z,98354.00
2019-06-26T05:16:41.061Z,98357.00
2019-06-26T05:19:11.464Z,98340.00
2019-06-26T05:21:41.864Z,98347.00
2019-06-26T05:24:12.258Z,98352.00
2019-06-26T05:26:42.661Z,98361.00
2019-06-26T05:29:13.067Z,98359.00
2019-06-26T05:31:43.474Z,98357.00
2019-06-26T05:34:13.885Z,98372.00
2019-06-26T05:36:45.245Z,98370.00
2019-06-26T05:39:15.636Z,98371.00
2019-06-26T05:41:46.973Z,98371.00
2019-06-26T05:44:17.745Z,98377.00
2019-06-26T05:46:49.052Z,98371.00
2019-06-26T05:49:19.545Z,98378.00
2019-06-26T05:51:50.628Z,98377.00
2019-06-26T05:54:21.776Z,98385.00
2019-06-26T05:56:53.868Z,98390.00
2019-06-26T05:59:25.186Z,98385.00
2019-06-26T06:01:55.877Z,98386.00
2019-06-26T06:04:27.075Z,98385.00
2019-06-26T06:06:59.036Z,98391.00
2019-06-26T06:09:29.459Z,98395.00
2019-06-26T06:12:00.678Z,98401.00
2019-06-26T06:14:31.915Z,98399.00
2019-06-26T06:17:03.174Z,98398.00
2019-06-26T06:19:33.919Z,98401.00
2019-06-26T06:22:04.889Z,98405.00
2019-06-26T06:24:36.282Z,98406.00
2019-06-26T06:27:06.876Z,98409.00
2019-06-26T06:29:38.188Z,98417.00
2019-06-26T06:32:09.296Z,98415.00
2019-06-26T06:34:39.691Z,98410.00
2019-06-26T06:37:10.905Z,98419.00
2019-06-26T06:39:41.311Z,98418.00
2019-06-26T06:42:11.715Z,98418.00
2019-06-26T06:44:42.108Z,98414.00
2019-06-26T06:47:12.507Z,98419.00
2019-06-26T06:49:42.955Z,98430.00
2019-06-26T06:52:16.502Z,98430.00
2019-06-26T06:54:45.733Z,98435.00
2019-06-26T06:57:16.130Z,98431.00
2019-06-26T06:59:47.783Z,98434.00
2019-06-26T07:02:18.181Z,98434.00
2019-06-26T07:04:48.652Z,98438.00
2019-06-26T07:07:19.262Z,98428.00
2019-06-26T07:09:49.639Z,98437.00
2019-06-26T07:12:21.012Z,98437.00
2019-06-26T07:14:51.519Z,98446.00
2019-06-26T07:17:21.898Z,98446.00
2019-06-26T07:19:52.304Z,98452.00
2019-06-26T07:22:22.728Z,98447.00
2019-06-26T07:24:53.204Z,98447.00
2019-06-26T07:27:23.618Z,98455.00
2019-06-26T07:29:54.006Z,98463.00
2019-06-26T07:32:24.434Z,98457.00
2019-06-26T07:34:55.799Z,98463.00
2019-06-26T07:37:26.830Z,98458.00
2019-06-26T07:40:01.438Z,98459.00
2019-06-26T07:42:29.407Z,98461.00
2019-06-26T07:44:59.797Z,98461.00
2019-06-26T07:47:42.608Z,98461.00
2019-06-26T07:50:02.436Z,98458.00
2019-06-26T07:52:32.848Z,98453.00
2019-06-26T07:55:03.609Z,98464.00
2019-06-26T07:57:34.012Z,98463.00
2019-06-26T08:00:06.028Z,98465.00
2019-06-26T08:02:36.429Z,98468.00
2019-06-26T08:05:08.926Z,98468.00
2019-06-26T08:07:39.703Z,98476.00
2019-06-26T08:10:10.409Z,98477.00
2019-06-26T08:12:40.813Z,98476.00
2019-06-26T08:15:11.829Z,98480.00
2019-06-26T08:17:59.319Z,98478.00
2019-06-26T08:20:16.182Z,98479.00
2019-06-26T08:22:46.606Z,98480.00
2019-06-26T08:25:18.048Z,98477.00
2019-06-26T08:27:49.097Z,98478.00
2019-06-26T08:30:20.891Z,98483.00
2019-06-26T08:32:51.288Z,98480.00
2019-06-26T08:35:21.693Z,98479.00
2019-06-26T08:38:08.982Z,98484.00
2019-06-26T08:40:24.717Z,98483.00
2019-06-26T08:42:55.292Z,98486.00
2019-06-26T08:45:25.758Z,98482.00
2019-06-26T08:47:56.431Z,98488.00
2019-06-26T08:50:26.827Z,98482.00
2019-06-26T08:52:57.276Z,98486.00
2019-06-26T08:55:27.702Z,98491.00
2019-06-26T08:58:10.505Z,98490.00
2019-06-26T09:00:40.898Z,98483.00
2019-06-26T09:03:11.309Z,98485.00
2019-06-26T09:05:48.015Z,98490.00
2019-06-26T09:08:14.368Z,98494.00
2019-06-26T09:10:45.329Z,98482.00
2019-06-26T09:13:15.851Z,98483.00
2019-06-26T09:15:49.694Z,98490.00
2019-06-26T09:18:34.303Z,98489.00
2019-06-26T09:20:50.465Z,98486.00
2019-06-26T09:23:20.858Z,98483.00
2019-06-26T09:25:51.258Z,98485.00
2019-06-26T09:28:21.659Z,98482.00
2019-06-26T09:30:52.107Z,98479.00
2019-06-26T09:33:22.464Z,98482.00
2019-06-26T09:35:52.937Z,98471.00
2019-06-26T09:38:24.179Z,98478.00
2019-06-26T09:40:54.840Z,98473.00
2019-06-26T09:43:25.244Z,98477.00
2019-06-26T09:45:55.640Z,98480.00
2019-06-26T09:48:26.041Z,98473.00
2019-06-26T09:50:56.432Z,98475.00
2019-06-26T09:53:27.180Z,98478.00
2019-06-26T09:55:57.590Z,98475.00
2019-06-26T09:58:27.992Z,98475.00
2019-06-26T10:00:58.377Z,98470.00
2019-06-26T10:03:29.107Z,98473.00
2019-06-26T10:05:59.497Z,98477.00
2019-06-26T10:08:30.709Z,98471.00
2019-06-26T10:11:01.165Z,98475.00
2019-06-26T10:13:32.654Z,98464.00
2019-06-26T10:16:03.050Z,98469.00
2019-06-26T10:18:33.455Z,98471.00
2019-06-26T10:21:04.929Z,98465.00
2019-06-26T10:23:35.316Z,98466.00
2019-06-26T10:26:05.718Z,98466.00
2019-06-26T10:28:36.126Z,98460.00
2019-06-26T10:31:06.787Z,98464.00
2019-06-26T10:33:37.171Z,98467.00
2019-06-26T10:36:07.569Z,98462.00
2019-06-26T10:38:38.496Z,98464.00
2019-06-26T10:41:08.903Z,98470.00
2019-06-26T10:43:39.304Z,98460.00
2019-06-26T10:46:09.708Z,98469.00
2019-06-26T10:48:40.101Z,98468.00
2019-06-26T10:51:10.509Z,98460.00
2019-06-26T10:53:40.906Z,98467.00
2019-06-26T10:56:11.305Z,98462.00
2019-06-26T10:58:41.700Z,98454.00
2019-06-26T11:01:12.097Z,98458.00
2019-06-26T11:03:43.568Z,98453.00
2019-06-26T11:06:13.968Z,98455.00
2019-06-26T11:08:44.845Z,98442.00
2019-06-26T11:11:15.251Z,98451.00
2019-06-26T11:13:45.636Z,98448.00
2019-06-26T11:16:16.288Z,98447.00
2019-06-26T11:18:46.667Z,98451.00
2019-06-26T11:21:17.071Z,98441.00
2019-06-26T11:23:47.464Z,98445.00
2019-06-26T11:26:17.862Z,98441.00
2019-06-26T11:28:48.259Z,98440.00
2019-06-26T11:31:18.647Z,98429.00
2019-06-26T11:33:49.057Z,98431.00
2019-06-26T11:36:19.446Z,98438.00
2019-06-26T11:38:49.851Z,98434.00
2019-06-26T11:41:20.251Z,98430.00
2019-06-26T11:43:50.650Z,98422.00
2019-06-26T11:46:21.054Z,98424.00
2019-06-26T11:48:51.445Z,98424.00
2019-06-26T11:51:22.822Z,98416.00
2019-06-26T11:53:53.210Z,98418.00
2019-06-26T11:56:23.738Z,98417.00
2019-06-26T11:58:54.157Z,98414.00
2019-06-26T12:01:24.643Z,98404.00
2019-06-26T12:03:55.070Z,98413.00
2019-06-26T12:06:25.448Z,98408.00
2019-06-26T12:08:56.341Z,98407.00
2019-06-26T12:11:26.741Z,98398.00
2019-06-26T12:13:57.130Z,98395.00
2019-06-26T12:16:27.522Z,98402.00
2019-06-26T12:18:57.928Z,98402.00
2019-06-26T12:21:28.326Z,98400.00
2019-06-26T12:23:58.722Z,98400.00
2019-06-26T12:26:29.122Z,98397.00
2019-06-26T12:28:59.528Z,98391.00
2019-06-26T12:31:30.286Z,98392.00
2019-06-26T12:34:00.668Z,98385.00
2019-06-26T12:36:31.058Z,98390.00
2019-06-26T12:39:01.750Z,98389.00
2019-06-26T12:41:33.741Z,98393.00
2019-06-26T12:44:04.455Z,98389.00
2019-06-26T12:46:34.932Z,98382.00
2019-06-26T12:49:05.390Z,98382.00
2019-06-26T12:51:35.784Z,98379.00
2019-06-26T12:54:06.197Z,98372.00
2019-06-26T12:56:36.613Z,98371.00
2019-06-26T12:59:07.026Z,98376.00
2019-06-26T13:01:37.421Z,98369.00
2019-06-26T13:04:07.814Z,98373.00
2019-06-26T13:06:38.236Z,98367.00
2019-06-26T13:09:09.711Z,98361.00
2019-06-26T13:11:40.090Z,98365.00
2019-06-26T13:14:11.043Z,98360.00
2019-06-26T13:16:41.803Z,98359.00
2019-06-26T13:19:12.175Z,98364.00
2019-06-26T13:21:42.648Z,98366.00
2019-06-26T13:24:13.047Z,98363.00
2019-06-26T13:26:43.413Z,98360.00
2019-06-26T13:29:13.812Z,98354.00
2019-06-26T13:31:44.542Z,98353.00
2019-06-26T13:34:14.925Z,98348.00
2019-06-26T13:36:45.318Z,98350.00
2019-06-26T13:39:16.545Z,98346.00
2019-06-26T13:41:47.277Z,98351.00
2019-06-26T13:44:17.678Z,98353.00
2019-06-26T13:46:48.151Z,98344.00
2019-06-26T13:49:18.552Z,98340.00
2019-06-26T13:51:48.953Z,98344.00
2019-06-26T13:54:19.449Z,98341.00
2019-06-26T13:56:49.793Z,98337.00
2019-06-26T13:59:20.185Z,98341.00
2019-06-26T14:01:50.590Z,98330.00
2019-06-26T14:04:20.983Z,98333.00
2019-06-26T14:06:51.407Z,98329.00
2019-06-26T14:09:23.208Z,98328.00
2019-06-26T14:11:53.602Z,98329.00
2019-06-26T14:14:40.804Z,98321.00
2019-06-26T14:16:56.101Z,98320.00
2019-06-26T14:19:26.964Z,98325.00
2019-06-26T14:21:57.361Z,98326.00
2019-06-26T14:24:27.752Z,98328.00
2019-06-26T14:26:58.143Z,98317.00
2019-06-26T14:29:28.580Z,98316.00
2019-06-26T14:31:59.949Z,98309.00
2019-06-26T14:34:30.915Z,98310.00
2019-06-26T14:37:01.317Z,98307.00
2019-06-26T14:39:32.554Z,98304.00
2019-06-26T14:42:03.645Z,98309.00
2019-06-26T14:44:34.004Z,98307.00
2019-06-26T14:47:04.871Z,98306.00
2019-06-26T14:49:35.219Z,98306.00
2019-06-26T14:52:05.807Z,98302.00
2019-06-26T14:54:36.209Z,98296.00
2019-06-26T14:57:06.589Z,98290.00
2019-06-26T14:59:36.984Z,98290.00
2019-06-26T15:02:08.646Z,98282.00
2019-06-26T15:04:39.061Z,98280.00
2019-06-26T15:07:09.486Z,98283.00
2019-06-26T15:09:41.483Z,98278.00
2019-06-26T15:12:11.868Z,98287.00
2019-06-26T15:14:42.269Z,98274.00
2019-06-26T15:17:12.677Z,98268.00
2019-06-26T15:19:43.075Z,98268.00
2019-06-26T15:22:13.483Z,98265.00
2019-06-26T15:24:43.884Z,98262.00
2019-06-26T15:27:14.274Z,98266.00
2019-06-26T15:29:44.749Z,98260.00
2019-06-26T15:32:15.232Z,98258.00
2019-06-26T15:34:46.790Z,98257.00
2019-06-26T15:37:17.194Z,98257.00
2019-06-26T15:39:48.839Z,98256.00
2019-06-26T15:42:22.475Z,98250.00
2019-06-26T15:44:52.182Z,98254.00
2019-06-26T15:47:22.886Z,98243.00
2019-06-26T15:49:53.616Z,98245.00
2019-06-26T15:52:24.023Z,98241.00
2019-06-26T15:54:54.467Z,98244.00
2019-06-26T15:57:25.882Z,98245.00
2019-06-26T15:59:56.549Z,98244.00
2019-06-26T16:02:28.501Z,98239.00
2019-06-26T16:05:01.188Z,98237.00
2019-06-26T16:07:34.579Z,98234.00
2019-06-26T16:10:09.872Z,98232.00
2019-06-26T16:12:40.313Z,98232.00
2019-06-26T16:15:11.306Z,98239.00
2019-06-26T16:17:46.107Z,98239.00
2019-06-26T16:20:18.214Z,98234.00
2019-06-26T16:22:49.593Z,98222.00
2019-06-26T16:25:24.364Z,98236.00
2019-06-26T16:28:05.229Z,98233.00
2019-06-26T16:30:26.868Z,98232.00
2019-06-26T16:33:01.490Z,98234.00
2019-06-26T16:35:30.309Z,98235.00
2019-06-26T16:38:00.930Z,98227.00
2019-06-26T16:40:34.113Z,98229.00
2019-06-26T16:43:21.992Z,98223.00
2019-06-26T16:46:28.049Z,98224.00
2019-06-26T16:49:08.410Z,98222.00
2019-06-26T16:52:03.260Z,98222.00
2019-06-26T16:54:56.882Z,98221.00
2019-06-26T16:57:44.210Z,98218.00
2019-06-26T17:00:23.217Z,98212.00
2019-06-26T17:03:22.971Z,98213.00
2019-06-26T17:06:49.290Z,98214.00
2019-06-26T17:12:30.799Z,98203.00
2019-06-26T17:15:12.920Z,98203.00
2019-06-26T17:18:24.369Z,98202.00
2019-06-26T17:21:15.020Z,98207.00
2019-06-26T17:23:53.713Z,98210.00
2019-06-26T17:26:42.675Z,98212.00
2019-06-26T17:29:28.967Z,98210.00
2019-06-26T17:32:42.309Z,98209.00
2019-06-26T17:35:50.235Z,98209.00
2019-06-26T17:39:17.271Z,98211.00
2019-06-26T17:41:20.269Z,98207.00
2019-06-26T17:47:11.426Z,98202.00
2019-06-26T17:49:44.650Z,98202.00
2019-06-26T17:52:15.051Z,98204.00
2019-06-26T17:54:45.455Z,98206.00
2019-06-26T17:57:16.343Z,98208.00
2019-06-26T17:59:46.743Z,98208.00
2019-06-26T18:02:18.914Z,98209.00
2019-06-26T18:04:49.678Z,98212.00
2019-06-26T18:07:20.069Z,98221.00
2019-06-26T18:09:50.474Z,98214.00
2019-06-26T18:12:21.370Z,98215.00
2019-06-26T18:14:51.896Z,98216.00
2019-06-26T18:17:23.326Z,98211.00
2019-06-26T18:19:58.315Z,98219.00
2019-06-26T18:22:28.658Z,98214.00
2019-06-26T18:24:59.101Z,98218.00
2019-06-26T18:27:31.116Z,98216.00
2019-06-26T18:30:02.287Z,98215.00
2019-06-26T18:32:33.116Z,98218.00
2019-06-26T18:35:04.874Z,98220.00
2019-06-26T18:37:35.247Z,98221.00
2019-06-26T18:40:07.366Z,98222.00
2019-06-26T18:42:37.920Z,98227.00
2019-06-26T18:45:08.775Z,98221.00
2019-06-26T18:47:45.166Z,98222.00
2019-06-26T18:50:18.663Z,98228.00
2019-06-26T18:52:49.333Z,98226.00
2019-06-26T18:55:22.296Z,98227.00
2019-06-26T18:57:51.910Z,98230.00
2019-06-26T19:00:23.972Z,98226.00
2019-06-26T19:02:54.470Z,98223.00
2019-06-26T19:05:24.858Z,98230.00
2019-06-26T19:07:55.253Z,98229.00
2019-06-26T19:10:25.681Z,98229.00
2019-06-26T19:12:56.488Z,98224.00
2019-06-26T19:15:26.985Z,98226.00
2019-06-26T19:17:57.390Z,98225.00
2019-06-26T19:20:27.868Z,98232.00
2019-06-26T19:22:58.274Z,98231.00
2019-06-26T19:25:29.084Z,98229.00
2019-06-26T19:27:59.942Z,98229.00
2019-06-26T19:30:30.340Z,98232.00
2019-06-26T19:33:00.756Z,98233.00
2019-06-26T19:35:32.145Z,98235.00
2019-06-26T19:38:02.541Z,98234.00
2019-06-26T19:40:32.936Z,98240.00
2019-06-26T19:43:03.592Z,98239.00
2019-06-26T19:45:33.998Z,98243.00
2019-06-26T19:48:04.401Z,98240.00
2019-06-26T19:50:34.814Z,98247.00
2019-06-26T19:53:05.612Z,98243.00
2019-06-26T19:55:36.087Z,98241.00
2019-06-26T19:58:06.497Z,98249.00
2019-06-26T20:00:36.894Z,98251.00
2019-06-26T20:03:07.628Z,98242.00
2019-06-26T20:05:38.032Z,98244.00
2019-06-26T20:08:08.472Z,98243.00
2019-06-26T20:10:38.986Z,98249.00
2019-06-26T20:13:09.588Z,98249.00
2019-06-26T20:15:40.072Z,98245.00
2019-06-26T20:18:10.474Z,98250.00
2019-06-26T20:20:40.873Z,98248.00
2019-06-26T20:23:11.283Z,98243.00
2019-06-26T20:25:41.686Z,98246.00
2019-06-26T20:28:12.759Z,98247.00
2019-06-26T20:30:43.155Z,98249.00
2019-06-26T20:33:13.564Z,98251.00
2019-06-26T20:35:43.958Z,98245.00
2019-06-26T20:38:14.616Z,98254.00
2019-06-26T20:40:46.135Z,98247.00
2019-06-26T20:43:16.866Z,98256.00
2019-06-26T20:45:47.366Z,98251.00
2019-06-26T20:48:18.840Z,98244.00
2019-06-26T20:50:49.254Z,98246.00
2019-06-26T20:53:19.647Z,98251.00
2019-06-26T20:55:50.057Z,98245.00
2019-06-26T20:58:20.442Z,98247.00
2019-06-26T21:00:50.911Z,98255.00
2019-06-26T21:03:21.478Z,98247.00
2019-06-26T21:05:51.900Z,98251.00
2019-06-26T21:08:22.570Z,98253.00
2019-06-26T21:10:52.976Z,98253.00
2019-06-26T21:13:23.771Z,98258.00
2019-06-26T21:15:54.251Z,98254.00
2019-06-26T21:18:24.671Z,98255.00
2019-06-26T21:20:55.415Z,98263.00
2019-06-26T21:23:25.818Z,98252.00
2019-06-26T21:25:56.489Z,98260.00
2019-06-26T21:28:27.452Z,98259.00
2019-06-26T21:30:57.850Z,98259.00
2019-06-26T21:33:28.256Z,98259.00
2019-06-26T21:35:58.659Z,98257.00
2019-06-26T21:38:29.057Z,98255.00
2019-06-26T21:40:59.461Z,98257.00
2019-06-26T21:43:29.867Z,98259.00
2019-06-26T21:46:00.278Z,98263.00
2019-06-26T21:48:30.693Z,98262.00
2019-06-26T21:51:01.098Z,98259.00
2019-06-26T21:53:31.523Z,98265.00
2019-06-26T21:56:19.902Z,98265.00
2019-06-26T21:59:08.389Z,98264.00
2019-06-26T22:01:56.836Z,98265.00
2019-06-26T22:04:44.960Z,98261.00
2019-06-26T22:07:29.559Z,98258.00
2019-06-26T22:10:01.553Z,98256.00
2019-06-26T22:12:33.681Z,98254.00
2019-06-26T22:15:05.386Z,98254.00
2019-06-26T22:17:36.818Z,98256.00
2019-06-26T22:20:12.525Z,98258.00
2019-06-26T22:22:41.406Z,98261.00
2019-06-26T22:25:11.942Z,98266.00
2019-06-26T22:27:42.334Z,98268.00
2019-06-26T22:30:13.990Z,98267.00
2019-06-26T22:32:44.433Z,98266.00
2019-06-26T22:35:15.669Z,98269.00
2019-06-26T22:37:46.086Z,98256.00
2019-06-26T22:40:16.617Z,98258.00
2019-06-26T22:42:47.163Z,98258.00
2019-06-26T22:45:17.943Z,98253.00
2019-06-26T22:47:48.344Z,98258.00
2019-06-26T22:50:19.730Z,98255.00
2019-06-26T22:52:50.121Z,98266.00
2019-06-26T22:55:20.539Z,98260.00
2019-06-26T22:57:50.937Z,98265.00
2019-06-26T23:00:21.607Z,98263.00
2019-06-26T23:02:52.371Z,98254.00
2019-06-26T23:05:22.771Z,98263.00
2019-06-26T23:07:53.188Z,98255.00
2019-06-26T23:10:23.588Z,98252.00
2019-06-26T23:12:53.992Z,98253.00
2019-06-26T23:15:24.949Z,98251.00
2019-06-26T23:17:55.984Z,98253.00
2019-06-26T23:20:26.383Z,98250.00
2019-06-26T23:22:56.797Z,98256.00
2019-06-26T23:25:27.199Z,98254.00
2019-06-26T23:27:57.602Z,98241.00
2019-06-26T23:30:28.494Z,98251.00
2019-06-26T23:32:58.894Z,98240.00
2019-06-26T23:35:29.367Z,98247.00
2019-06-26T23:37:59.775Z,98253.00
2019-06-26T23:40:30.181Z,98244.00
2019-06-26T23:43:00.587Z,98240.00
2019-06-26T23:45:32.059Z,98235.00
2019-06-26T23:48:02.742Z,98240.00
2019-06-26T23:50:33.166Z,98237.00
2019-06-26T23:53:03.887Z,98239.00
2019-06-26T23:55:34.299Z,98237.00
2019-06-26T23:58:04.693Z,98240.00
